sensor_id;sensor_type;location;lat;lon;timestamp;temperature;humidity
79356;SHT31;68825;51.978;5.654;2023-11-19T00:00:23;14.9;84.7
79356;SHT31;68825;51.978;5.654;2023-11-19T00:02:52;14.9;84.5
79356;SHT31;68825;51.978;5.654;2023-11-19T00:05:21;14.9;84.4
79356;SHT31;68825;51.978;5.654;2023-11-19T00:07:49;14.9;84.4
79356;SHT31;68825;51.978;5.654;2023-11-19T00:10:18;15.0;84.3
79356;SHT31;68825;51.978;5.654;2023-11-19T00:12:48;15.0;84.2
79356;SHT31;68825;51.978;5.654;2023-11-19T00:15:18;15.0;84.1
79356;SHT31;68825;51.978;5.654;2023-11-19T00:17:49;15.0;84.0
79356;SHT31;68825;51.978;5.654;2023-11-19T00:20:19;15.0;83.9
79356;SHT31;68825;51.978;5.654;2023-11-19T00:22:48;15.0;83.9
79356;SHT31;68825;51.978;5.654;2023-11-19T00:25:18;15.1;83.9
79356;SHT31;68825;51.978;5.654;2023-11-19T00:27:46;15.1;83.7
79356;SHT31;68825;51.978;5.654;2023-11-19T00:30:15;15.1;83.6
79356;SHT31;68825;51.978;5.654;2023-11-19T00:32:44;15.1;83.5
79356;SHT31;68825;51.978;5.654;2023-11-19T00:35:14;15.1;83.5
79356;SHT31;68825;51.978;5.654;2023-11-19T00:37:43;15.1;83.4
79356;SHT31;68825;51.978;5.654;2023-11-19T00:40:14;15.1;83.2
79356;SHT31;68825;51.978;5.654;2023-11-19T00:42:44;15.1;83.1
79356;SHT31;68825;51.978;5.654;2023-11-19T00:45:16;15.2;83.0
79356;SHT31;68825;51.978;5.654;2023-11-19T00:47:44;15.2;82.9
79356;SHT31;68825;51.978;5.654;2023-11-19T00:50:13;15.2;82.9
79356;SHT31;68825;51.978;5.654;2023-11-19T00:52:42;15.2;82.8
79356;SHT31;68825;51.978;5.654;2023-11-19T00:55:10;15.2;82.8
79356;SHT31;68825;51.978;5.654;2023-11-19T00:57:39;15.2;82.7
79356;SHT31;68825;51.978;5.654;2023-11-19T01:00:09;15.2;82.7
79356;SHT31;68825;51.978;5.654;2023-11-19T01:02:44;15.2;82.7
79356;SHT31;68825;51.978;5.654;2023-11-19T01:05:13;15.2;82.9
79356;SHT31;68825;51.978;5.654;2023-11-19T01:07:42;15.2;82.8
79356;SHT31;68825;51.978;5.654;2023-11-19T01:10:11;15.2;82.6
79356;SHT31;68825;51.978;5.654;2023-11-19T01:12:41;15.2;82.6
79356;SHT31;68825;51.978;5.654;2023-11-19T01:15:10;15.2;82.5
79356;SHT31;68825;51.978;5.654;2023-11-19T01:17:39;15.2;82.6
79356;SHT31;68825;51.978;5.654;2023-11-19T01:20:10;15.2;82.5
79356;SHT31;68825;51.978;5.654;2023-11-19T01:22:40;15.2;82.3
79356;SHT31;68825;51.978;5.654;2023-11-19T01:25:10;15.2;82.2
79356;SHT31;68825;51.978;5.654;2023-11-19T01:27:38;15.2;82.0
79356;SHT31;68825;51.978;5.654;2023-11-19T01:30:10;15.2;82.1
79356;SHT31;68825;51.978;5.654;2023-11-19T01:32:40;15.2;81.9
79356;SHT31;68825;51.978;5.654;2023-11-19T01:35:09;15.2;81.9
79356;SHT31;68825;51.978;5.654;2023-11-19T01:37:37;15.2;81.8
79356;SHT31;68825;51.978;5.654;2023-11-19T01:40:06;15.2;81.7
79356;SHT31;68825;51.978;5.654;2023-11-19T01:42:38;15.2;81.7
79356;SHT31;68825;51.978;5.654;2023-11-19T01:45:08;15.2;81.6
79356;SHT31;68825;51.978;5.654;2023-11-19T01:47:37;15.2;81.6
79356;SHT31;68825;51.978;5.654;2023-11-19T01:50:08;15.2;81.7
79356;SHT31;68825;51.978;5.654;2023-11-19T01:52:37;15.2;81.5
79356;SHT31;68825;51.978;5.654;2023-11-19T01:55:09;15.2;81.7
79356;SHT31;68825;51.978;5.654;2023-11-19T01:57:39;15.2;81.4
79356;SHT31;68825;51.978;5.654;2023-11-19T02:00:09;15.2;81.3
79356;SHT31;68825;51.978;5.654;2023-11-19T02:02:39;15.2;81.1
79356;SHT31;68825;51.978;5.654;2023-11-19T02:05:10;15.2;81.3
79356;SHT31;68825;51.978;5.654;2023-11-19T02:07:40;15.2;81.2
79356;SHT31;68825;51.978;5.654;2023-11-19T02:10:10;15.2;81.0
79356;SHT31;68825;51.978;5.654;2023-11-19T02:12:42;15.2;80.9
79356;SHT31;68825;51.978;5.654;2023-11-19T02:15:11;15.2;80.4
79356;SHT31;68825;51.978;5.654;2023-11-19T02:17:40;15.2;80.4
79356;SHT31;68825;51.978;5.654;2023-11-19T02:20:10;15.2;80.7
79356;SHT31;68825;51.978;5.654;2023-11-19T02:22:41;15.1;80.4
79356;SHT31;68825;51.978;5.654;2023-11-19T02:25:17;15.1;80.3
79356;SHT31;68825;51.978;5.654;2023-11-19T02:27:56;15.1;80.0
79356;SHT31;68825;51.978;5.654;2023-11-19T02:30:26;15.1;80.0
79356;SHT31;68825;51.978;5.654;2023-11-19T02:32:56;15.1;79.9
79356;SHT31;68825;51.978;5.654;2023-11-19T02:35:27;15.1;79.8
79356;SHT31;68825;51.978;5.654;2023-11-19T02:37:58;15.0;79.9
79356;SHT31;68825;51.978;5.654;2023-11-19T02:40:29;15.0;79.7
79356;SHT31;68825;51.978;5.654;2023-11-19T02:42:58;15.0;79.9
79356;SHT31;68825;51.978;5.654;2023-11-19T02:45:29;15.0;80.2
79356;SHT31;68825;51.978;5.654;2023-11-19T02:47:57;15.0;79.6
79356;SHT31;68825;51.978;5.654;2023-11-19T02:50:30;14.9;79.6
79356;SHT31;68825;51.978;5.654;2023-11-19T02:52:58;14.9;79.1
79356;SHT31;68825;51.978;5.654;2023-11-19T02:55:29;14.9;79.2
79356;SHT31;68825;51.978;5.654;2023-11-19T02:58:03;14.9;79.0
79356;SHT31;68825;51.978;5.654;2023-11-19T03:00:39;14.9;78.4
79356;SHT31;68825;51.978;5.654;2023-11-19T03:03:13;14.8;78.7
79356;SHT31;68825;51.978;5.654;2023-11-19T03:05:47;14.8;78.5
79356;SHT31;68825;51.978;5.654;2023-11-19T03:08:16;14.8;79.0
79356;SHT31;68825;51.978;5.654;2023-11-19T03:10:44;14.7;79.1
79356;SHT31;68825;51.978;5.654;2023-11-19T03:13:14;14.7;78.7
79356;SHT31;68825;51.978;5.654;2023-11-19T03:15:43;14.7;78.9
79356;SHT31;68825;51.978;5.654;2023-11-19T03:18:12;14.7;79.1
79356;SHT31;68825;51.978;5.654;2023-11-19T03:20:42;14.6;78.6
79356;SHT31;68825;51.978;5.654;2023-11-19T03:23:11;14.6;78.8
79356;SHT31;68825;51.978;5.654;2023-11-19T03:25:41;14.6;78.7
79356;SHT31;68825;51.978;5.654;2023-11-19T03:28:10;14.6;78.5
79356;SHT31;68825;51.978;5.654;2023-11-19T03:30:40;14.5;78.5
79356;SHT31;68825;51.978;5.654;2023-11-19T03:33:10;14.5;78.3
79356;SHT31;68825;51.978;5.654;2023-11-19T03:35:38;14.5;78.4
79356;SHT31;68825;51.978;5.654;2023-11-19T03:38:08;14.4;78.3
79356;SHT31;68825;51.978;5.654;2023-11-19T03:40:38;14.4;78.3
79356;SHT31;68825;51.978;5.654;2023-11-19T03:43:07;14.4;78.6
79356;SHT31;68825;51.978;5.654;2023-11-19T03:45:35;14.3;78.2
79356;SHT31;68825;51.978;5.654;2023-11-19T03:48:06;14.3;78.5
79356;SHT31;68825;51.978;5.654;2023-11-19T03:50:35;14.2;78.4
79356;SHT31;68825;51.978;5.654;2023-11-19T03:53:03;14.2;78.3
79356;SHT31;68825;51.978;5.654;2023-11-19T03:55:32;14.2;78.3
79356;SHT31;68825;51.978;5.654;2023-11-19T03:58:03;14.2;78.3
79356;SHT31;68825;51.978;5.654;2023-11-19T04:00:32;14.1;78.5
79356;SHT31;68825;51.978;5.654;2023-11-19T04:03:00;14.1;78.5
79356;SHT31;68825;51.978;5.654;2023-11-19T04:05:29;14.1;78.5
79356;SHT31;68825;51.978;5.654;2023-11-19T04:07:58;14.1;78.4
79356;SHT31;68825;51.978;5.654;2023-11-19T04:10:27;14.0;78.3
79356;SHT31;68825;51.978;5.654;2023-11-19T04:12:57;14.0;78.3
79356;SHT31;68825;51.978;5.654;2023-11-19T04:15:26;14.0;78.2
79356;SHT31;68825;51.978;5.654;2023-11-19T04:17:55;14.0;78.1
79356;SHT31;68825;51.978;5.654;2023-11-19T04:20:24;13.9;78.0
79356;SHT31;68825;51.978;5.654;2023-11-19T04:22:54;13.9;78.0
79356;SHT31;68825;51.978;5.654;2023-11-19T04:25:23;13.9;78.0
79356;SHT31;68825;51.978;5.654;2023-11-19T04:27:52;13.9;77.8
79356;SHT31;68825;51.978;5.654;2023-11-19T04:30:21;13.8;77.6
79356;SHT31;68825;51.978;5.654;2023-11-19T04:32:50;13.8;77.6
79356;SHT31;68825;51.978;5.654;2023-11-19T04:35:18;13.8;77.7
79356;SHT31;68825;51.978;5.654;2023-11-19T04:37:47;13.8;77.5
79356;SHT31;68825;51.978;5.654;2023-11-19T04:40:16;13.8;77.7
79356;SHT31;68825;51.978;5.654;2023-11-19T04:42:49;13.8;77.5
79356;SHT31;68825;51.978;5.654;2023-11-19T04:45:17;13.7;77.6
79356;SHT31;68825;51.978;5.654;2023-11-19T04:47:46;13.7;77.4
79356;SHT31;68825;51.978;5.654;2023-11-19T04:50:15;13.7;77.6
79356;SHT31;68825;51.978;5.654;2023-11-19T04:52:43;13.7;77.5
79356;SHT31;68825;51.978;5.654;2023-11-19T04:55:14;13.7;77.3
79356;SHT31;68825;51.978;5.654;2023-11-19T04:57:42;13.7;77.1
79356;SHT31;68825;51.978;5.654;2023-11-19T05:00:12;13.7;77.2
79356;SHT31;68825;51.978;5.654;2023-11-19T05:02:41;13.7;77.0
79356;SHT31;68825;51.978;5.654;2023-11-19T05:05:09;13.6;76.9
79356;SHT31;68825;51.978;5.654;2023-11-19T05:07:38;13.6;76.8
79356;SHT31;68825;51.978;5.654;2023-11-19T05:10:07;13.6;77.2
79356;SHT31;68825;51.978;5.654;2023-11-19T05:12:36;13.6;77.0
79356;SHT31;68825;51.978;5.654;2023-11-19T05:15:06;13.6;76.9
79356;SHT31;68825;51.978;5.654;2023-11-19T05:17:34;13.6;77.0
79356;SHT31;68825;51.978;5.654;2023-11-19T05:20:04;13.6;77.3
79356;SHT31;68825;51.978;5.654;2023-11-19T05:22:37;13.6;77.1
79356;SHT31;68825;51.978;5.654;2023-11-19T05:25:06;13.7;77.4
79356;SHT31;68825;51.978;5.654;2023-11-19T05:27:36;13.7;77.0
79356;SHT31;68825;51.978;5.654;2023-11-19T05:30:06;13.7;76.9
79356;SHT31;68825;51.978;5.654;2023-11-19T05:32:36;13.7;76.6
79356;SHT31;68825;51.978;5.654;2023-11-19T05:35:06;13.7;76.3
79356;SHT31;68825;51.978;5.654;2023-11-19T05:37:35;13.7;76.7
79356;SHT31;68825;51.978;5.654;2023-11-19T05:40:08;13.7;76.2
79356;SHT31;68825;51.978;5.654;2023-11-19T05:42:41;13.6;76.5
79356;SHT31;68825;51.978;5.654;2023-11-19T05:45:11;13.7;76.5
79356;SHT31;68825;51.978;5.654;2023-11-19T05:47:41;13.7;76.6
79356;SHT31;68825;51.978;5.654;2023-11-19T05:50:10;13.7;76.2
79356;SHT31;68825;51.978;5.654;2023-11-19T05:52:40;13.7;76.2
79356;SHT31;68825;51.978;5.654;2023-11-19T05:55:09;13.7;75.9
79356;SHT31;68825;51.978;5.654;2023-11-19T05:57:39;13.7;76.0
79356;SHT31;68825;51.978;5.654;2023-11-19T06:00:09;13.7;75.8
79356;SHT31;68825;51.978;5.654;2023-11-19T06:02:39;13.7;75.9
79356;SHT31;68825;51.978;5.654;2023-11-19T06:05:08;13.7;75.8
79356;SHT31;68825;51.978;5.654;2023-11-19T06:07:39;13.7;76.0
79356;SHT31;68825;51.978;5.654;2023-11-19T06:10:08;13.7;76.0
79356;SHT31;68825;51.978;5.654;2023-11-19T06:12:39;13.7;76.1
79356;SHT31;68825;51.978;5.654;2023-11-19T06:15:11;13.7;76.2
79356;SHT31;68825;51.978;5.654;2023-11-19T06:17:40;13.6;76.2
79356;SHT31;68825;51.978;5.654;2023-11-19T06:20:12;13.6;76.3
79356;SHT31;68825;51.978;5.654;2023-11-19T06:22:40;13.6;75.9
79356;SHT31;68825;51.978;5.654;2023-11-19T06:25:13;13.6;76.2
79356;SHT31;68825;51.978;5.654;2023-11-19T06:27:42;13.6;76.1
79356;SHT31;68825;51.978;5.654;2023-11-19T06:30:11;13.6;76.2
79356;SHT31;68825;51.978;5.654;2023-11-19T06:32:40;13.6;76.0
79356;SHT31;68825;51.978;5.654;2023-11-19T06:35:09;13.6;76.1
79356;SHT31;68825;51.978;5.654;2023-11-19T06:37:40;13.6;76.2
79356;SHT31;68825;51.978;5.654;2023-11-19T06:40:09;13.5;76.1
79356;SHT31;68825;51.978;5.654;2023-11-19T06:42:38;13.5;76.4
79356;SHT31;68825;51.978;5.654;2023-11-19T06:45:08;13.5;76.2
79356;SHT31;68825;51.978;5.654;2023-11-19T06:47:37;13.5;76.4
79356;SHT31;68825;51.978;5.654;2023-11-19T06:50:07;13.5;76.4
79356;SHT31;68825;51.978;5.654;2023-11-19T06:52:36;13.6;76.3
79356;SHT31;68825;51.978;5.654;2023-11-19T06:55:06;13.6;76.1
79356;SHT31;68825;51.978;5.654;2023-11-19T06:57:36;13.6;76.2
79356;SHT31;68825;51.978;5.654;2023-11-19T07:00:06;13.6;75.8
79356;SHT31;68825;51.978;5.654;2023-11-19T07:02:35;13.6;75.8
79356;SHT31;68825;51.978;5.654;2023-11-19T07:05:04;13.6;76.0
79356;SHT31;68825;51.978;5.654;2023-11-19T07:07:34;13.6;75.9
79356;SHT31;68825;51.978;5.654;2023-11-19T07:10:04;13.6;75.9
79356;SHT31;68825;51.978;5.654;2023-11-19T07:12:36;13.6;76.0
79356;SHT31;68825;51.978;5.654;2023-11-19T07:15:06;13.6;75.8
79356;SHT31;68825;51.978;5.654;2023-11-19T07:17:35;13.6;75.9
79356;SHT31;68825;51.978;5.654;2023-11-19T07:20:03;13.6;75.6
79356;SHT31;68825;51.978;5.654;2023-11-19T07:22:32;13.6;75.4
79356;SHT31;68825;51.978;5.654;2023-11-19T07:25:01;13.6;75.3
79356;SHT31;68825;51.978;5.654;2023-11-19T07:27:31;13.6;75.7
79356;SHT31;68825;51.978;5.654;2023-11-19T07:30:00;13.6;75.8
79356;SHT31;68825;51.978;5.654;2023-11-19T07:32:28;13.6;75.5
79356;SHT31;68825;51.978;5.654;2023-11-19T07:34:57;13.6;75.7
79356;SHT31;68825;51.978;5.654;2023-11-19T07:37:25;13.6;75.6
79356;SHT31;68825;51.978;5.654;2023-11-19T07:39:56;13.6;75.8
79356;SHT31;68825;51.978;5.654;2023-11-19T07:42:27;13.6;75.8
79356;SHT31;68825;51.978;5.654;2023-11-19T07:44:55;13.6;75.9
79356;SHT31;68825;51.978;5.654;2023-11-19T07:47:26;13.6;75.8
79356;SHT31;68825;51.978;5.654;2023-11-19T07:49:57;13.6;76.2
79356;SHT31;68825;51.978;5.654;2023-11-19T07:52:25;13.6;76.4
79356;SHT31;68825;51.978;5.654;2023-11-19T07:54:54;13.7;75.7
79356;SHT31;68825;51.978;5.654;2023-11-19T07:57:23;13.7;76.1
79356;SHT31;68825;51.978;5.654;2023-11-19T07:59:55;13.7;76.1
79356;SHT31;68825;51.978;5.654;2023-11-19T08:02:23;13.8;75.7
79356;SHT31;68825;51.978;5.654;2023-11-19T08:04:52;13.8;75.2
79356;SHT31;68825;51.978;5.654;2023-11-19T08:07:21;13.8;75.2
79356;SHT31;68825;51.978;5.654;2023-11-19T08:09:50;13.9;74.8
79356;SHT31;68825;51.978;5.654;2023-11-19T08:12:19;13.9;74.9
79356;SHT31;68825;51.978;5.654;2023-11-19T08:14:47;13.9;74.9
79356;SHT31;68825;51.978;5.654;2023-11-19T08:17:16;13.9;75.0
79356;SHT31;68825;51.978;5.654;2023-11-19T08:19:44;14.0;74.9
79356;SHT31;68825;51.978;5.654;2023-11-19T08:22:13;14.0;74.6
79356;SHT31;68825;51.978;5.654;2023-11-19T08:24:43;14.0;74.8
79356;SHT31;68825;51.978;5.654;2023-11-19T08:27:11;14.0;74.3
79356;SHT31;68825;51.978;5.654;2023-11-19T08:29:40;14.0;74.2
79356;SHT31;68825;51.978;5.654;2023-11-19T08:32:08;14.0;74.0
79356;SHT31;68825;51.978;5.654;2023-11-19T08:34:37;14.1;73.8
79356;SHT31;68825;51.978;5.654;2023-11-19T08:37:06;14.1;74.0
79356;SHT31;68825;51.978;5.654;2023-11-19T08:39:34;14.1;73.5
79356;SHT31;68825;51.978;5.654;2023-11-19T08:42:04;14.1;73.3
79356;SHT31;68825;51.978;5.654;2023-11-19T08:44:33;14.1;74.3
79356;SHT31;68825;51.978;5.654;2023-11-19T08:47:01;14.1;73.6
79356;SHT31;68825;51.978;5.654;2023-11-19T08:49:30;14.2;73.6
79356;SHT31;68825;51.978;5.654;2023-11-19T08:51:59;14.2;73.1
79356;SHT31;68825;51.978;5.654;2023-11-19T08:54:27;14.2;73.2
79356;SHT31;68825;51.978;5.654;2023-11-19T08:56:56;14.2;73.3
79356;SHT31;68825;51.978;5.654;2023-11-19T08:59:24;14.3;72.8
79356;SHT31;68825;51.978;5.654;2023-11-19T09:01:54;14.3;73.2
79356;SHT31;68825;51.978;5.654;2023-11-19T09:04:23;14.3;72.5
79356;SHT31;68825;51.978;5.654;2023-11-19T09:06:52;14.3;72.2
79356;SHT31;68825;51.978;5.654;2023-11-19T09:09:21;14.3;71.6
79356;SHT31;68825;51.978;5.654;2023-11-19T09:11:50;14.3;72.1
79356;SHT31;68825;51.978;5.654;2023-11-19T09:14:18;14.3;71.8
79356;SHT31;68825;51.978;5.654;2023-11-19T09:16:50;14.4;71.9
79356;SHT31;68825;51.978;5.654;2023-11-19T09:19:19;14.4;72.2
79356;SHT31;68825;51.978;5.654;2023-11-19T09:21:47;14.4;72.1
79356;SHT31;68825;51.978;5.654;2023-11-19T09:24:16;14.4;72.2
79356;SHT31;68825;51.978;5.654;2023-11-19T09:26:45;14.4;72.3
79356;SHT31;68825;51.978;5.654;2023-11-19T09:29:13;14.4;72.2
79356;SHT31;68825;51.978;5.654;2023-11-19T09:31:43;14.4;72.1
79356;SHT31;68825;51.978;5.654;2023-11-19T09:34:11;14.5;72.2
79356;SHT31;68825;51.978;5.654;2023-11-19T09:36:40;14.5;72.2
79356;SHT31;68825;51.978;5.654;2023-11-19T09:39:10;14.5;72.4
79356;SHT31;68825;51.978;5.654;2023-11-19T09:41:39;14.5;71.9
79356;SHT31;68825;51.978;5.654;2023-11-19T09:44:09;14.6;71.5
79356;SHT31;68825;51.978;5.654;2023-11-19T09:46:38;14.6;71.8
79356;SHT31;68825;51.978;5.654;2023-11-19T09:49:10;14.6;71.5
79356;SHT31;68825;51.978;5.654;2023-11-19T09:51:40;14.7;71.3
79356;SHT31;68825;51.978;5.654;2023-11-19T09:54:09;14.7;70.8
79356;SHT31;68825;51.978;5.654;2023-11-19T09:56:40;14.7;71.1
79356;SHT31;68825;51.978;5.654;2023-11-19T09:59:09;14.8;71.2
79356;SHT31;68825;51.978;5.654;2023-11-19T10:01:41;14.8;71.2
79356;SHT31;68825;51.978;5.654;2023-11-19T10:04:11;14.8;70.6
79356;SHT31;68825;51.978;5.654;2023-11-19T10:06:41;14.9;70.6
79356;SHT31;68825;51.978;5.654;2023-11-19T10:09:11;14.9;69.9
79356;SHT31;68825;51.978;5.654;2023-11-19T10:11:41;14.9;70.8
79356;SHT31;68825;51.978;5.654;2023-11-19T10:14:10;15.0;70.4
79356;SHT31;68825;51.978;5.654;2023-11-19T10:16:40;15.0;70.2
79356;SHT31;68825;51.978;5.654;2023-11-19T10:19:12;15.0;70.1
79356;SHT31;68825;51.978;5.654;2023-11-19T10:21:46;15.1;69.6
79356;SHT31;68825;51.978;5.654;2023-11-19T10:24:15;15.1;70.2
79356;SHT31;68825;51.978;5.654;2023-11-19T10:26:43;15.1;69.3
79356;SHT31;68825;51.978;5.654;2023-11-19T10:29:14;15.1;68.6
79356;SHT31;68825;51.978;5.654;2023-11-19T10:31:57;15.1;68.8
79356;SHT31;68825;51.978;5.654;2023-11-19T10:34:27;15.1;69.6
79356;SHT31;68825;51.978;5.654;2023-11-19T10:36:56;15.1;69.5
79356;SHT31;68825;51.978;5.654;2023-11-19T10:39:37;15.1;68.7
79356;SHT31;68825;51.978;5.654;2023-11-19T10:42:16;15.2;69.3
79356;SHT31;68825;51.978;5.654;2023-11-19T10:44:45;15.2;68.9
79356;SHT31;68825;51.978;5.654;2023-11-19T10:47:14;15.2;68.0
79356;SHT31;68825;51.978;5.654;2023-11-19T10:49:45;15.2;68.4
79356;SHT31;68825;51.978;5.654;2023-11-19T10:52:17;15.3;69.0
79356;SHT31;68825;51.978;5.654;2023-11-19T10:54:50;15.3;68.5
79356;SHT31;68825;51.978;5.654;2023-11-19T10:57:21;15.3;68.4
79356;SHT31;68825;51.978;5.654;2023-11-19T11:00:00;15.4;68.1
79356;SHT31;68825;51.978;5.654;2023-11-19T11:02:36;15.4;67.4
79356;SHT31;68825;51.978;5.654;2023-11-19T11:05:09;15.4;68.3
79356;SHT31;68825;51.978;5.654;2023-11-19T11:07:40;15.5;67.1
79356;SHT31;68825;51.978;5.654;2023-11-19T11:10:13;15.5;68.1
79356;SHT31;68825;51.978;5.654;2023-11-19T11:12:43;15.5;66.9
79356;SHT31;68825;51.978;5.654;2023-11-19T11:15:19;15.5;66.5
79356;SHT31;68825;51.978;5.654;2023-11-19T11:17:49;15.5;66.5
79356;SHT31;68825;51.978;5.654;2023-11-19T11:20:20;15.5;66.9
79356;SHT31;68825;51.978;5.654;2023-11-19T11:23:01;15.5;67.2
79356;SHT31;68825;51.978;5.654;2023-11-19T11:25:44;15.5;67.4
79356;SHT31;68825;51.978;5.654;2023-11-19T11:28:28;15.5;67.3
79356;SHT31;68825;51.978;5.654;2023-11-19T11:31:21;15.5;67.8
79356;SHT31;68825;51.978;5.654;2023-11-19T11:37:10;15.5;67.6
79356;SHT31;68825;51.978;5.654;2023-11-19T11:39:45;15.5;68.3
79356;SHT31;68825;51.978;5.654;2023-11-19T11:42:34;15.5;67.4
79356;SHT31;68825;51.978;5.654;2023-11-19T11:45:05;15.5;67.7
79356;SHT31;68825;51.978;5.654;2023-11-19T11:48:10;15.6;66.8
79356;SHT31;68825;51.978;5.654;2023-11-19T11:50:54;15.6;68.0
79356;SHT31;68825;51.978;5.654;2023-11-19T11:53:24;15.6;66.8
79356;SHT31;68825;51.978;5.654;2023-11-19T11:55:55;15.7;68.1
79356;SHT31;68825;51.978;5.654;2023-11-19T11:58:30;15.7;66.2
79356;SHT31;68825;51.978;5.654;2023-11-19T12:01:02;15.7;66.9
79356;SHT31;68825;51.978;5.654;2023-11-19T12:03:33;15.8;65.9
79356;SHT31;68825;51.978;5.654;2023-11-19T12:06:02;15.8;65.6
79356;SHT31;68825;51.978;5.654;2023-11-19T12:08:34;15.8;65.6
79356;SHT31;68825;51.978;5.654;2023-11-19T12:11:04;15.8;64.8
79356;SHT31;68825;51.978;5.654;2023-11-19T12:17:47;15.8;65.1
79356;SHT31;68825;51.978;5.654;2023-11-19T12:20:21;15.8;66.1
79356;SHT31;68825;51.978;5.654;2023-11-19T12:22:50;15.8;65.7
79356;SHT31;68825;51.978;5.654;2023-11-19T12:25:20;15.8;65.8
79356;SHT31;68825;51.978;5.654;2023-11-19T12:27:50;15.8;65.0
79356;SHT31;68825;51.978;5.654;2023-11-19T12:30:22;15.8;65.9
79356;SHT31;68825;51.978;5.654;2023-11-19T12:32:52;15.8;65.4
79356;SHT31;68825;51.978;5.654;2023-11-19T12:35:24;15.8;66.3
79356;SHT31;68825;51.978;5.654;2023-11-19T12:37:54;15.8;64.6
79356;SHT31;68825;51.978;5.654;2023-11-19T12:40:24;15.8;65.8
79356;SHT31;68825;51.978;5.654;2023-11-19T12:42:55;15.8;65.6
79356;SHT31;68825;51.978;5.654;2023-11-19T12:45:24;15.9;65.4
79356;SHT31;68825;51.978;5.654;2023-11-19T12:48:08;15.9;64.6
79356;SHT31;68825;51.978;5.654;2023-11-19T12:50:53;15.9;65.2
79356;SHT31;68825;51.978;5.654;2023-11-19T12:53:23;15.9;65.2
79356;SHT31;68825;51.978;5.654;2023-11-19T12:55:53;15.9;65.5
79356;SHT31;68825;51.978;5.654;2023-11-19T12:58:32;16.0;64.4
79356;SHT31;68825;51.978;5.654;2023-11-19T13:01:02;16.0;64.7
79356;SHT31;68825;51.978;5.654;2023-11-19T13:03:33;16.0;64.6
79356;SHT31;68825;51.978;5.654;2023-11-19T13:06:07;16.0;64.4
79356;SHT31;68825;51.978;5.654;2023-11-19T13:08:38;16.0;64.7
79356;SHT31;68825;51.978;5.654;2023-11-19T13:11:08;16.0;64.8
79356;SHT31;68825;51.978;5.654;2023-11-19T13:13:56;16.0;64.2
79356;SHT31;68825;51.978;5.654;2023-11-19T13:16:27;16.0;64.9
79356;SHT31;68825;51.978;5.654;2023-11-19T13:18:56;15.9;65.0
79356;SHT31;68825;51.978;5.654;2023-11-19T13:21:26;15.9;64.8
79356;SHT31;68825;51.978;5.654;2023-11-19T13:23:56;15.9;64.8
79356;SHT31;68825;51.978;5.654;2023-11-19T13:26:25;15.9;65.1
79356;SHT31;68825;51.978;5.654;2023-11-19T13:28:54;15.9;65.5
79356;SHT31;68825;51.978;5.654;2023-11-19T13:31:23;15.9;65.8
79356;SHT31;68825;51.978;5.654;2023-11-19T13:33:51;15.9;66.6
79356;SHT31;68825;51.978;5.654;2023-11-19T13:36:20;15.9;65.9
79356;SHT31;68825;51.978;5.654;2023-11-19T13:38:49;15.9;65.7
79356;SHT31;68825;51.978;5.654;2023-11-19T13:41:17;15.9;65.2
79356;SHT31;68825;51.978;5.654;2023-11-19T13:43:46;15.9;65.6
79356;SHT31;68825;51.978;5.654;2023-11-19T13:46:14;15.9;66.0
79356;SHT31;68825;51.978;5.654;2023-11-19T13:48:43;15.8;66.4
79356;SHT31;68825;51.978;5.654;2023-11-19T13:51:11;15.8;67.4
79356;SHT31;68825;51.978;5.654;2023-11-19T13:53:40;15.9;67.1
79356;SHT31;68825;51.978;5.654;2023-11-19T13:56:10;15.9;67.2
79356;SHT31;68825;51.978;5.654;2023-11-19T13:58:39;15.9;67.2
79356;SHT31;68825;51.978;5.654;2023-11-19T14:01:09;15.8;67.7
79356;SHT31;68825;51.978;5.654;2023-11-19T14:03:39;15.8;67.6
79356;SHT31;68825;51.978;5.654;2023-11-19T14:06:08;15.8;67.7
79356;SHT31;68825;51.978;5.654;2023-11-19T14:08:37;15.8;67.4
79356;SHT31;68825;51.978;5.654;2023-11-19T14:11:08;15.8;68.2
79356;SHT31;68825;51.978;5.654;2023-11-19T14:13:37;15.7;67.9
79356;SHT31;68825;51.978;5.654;2023-11-19T14:16:06;15.7;67.2
79356;SHT31;68825;51.978;5.654;2023-11-19T14:18:35;15.7;67.0
79356;SHT31;68825;51.978;5.654;2023-11-19T14:21:05;15.7;66.8
79356;SHT31;68825;51.978;5.654;2023-11-19T14:23:34;15.7;66.4
79356;SHT31;68825;51.978;5.654;2023-11-19T14:26:02;15.7;66.7
79356;SHT31;68825;51.978;5.654;2023-11-19T14:28:34;15.7;66.6
79356;SHT31;68825;51.978;5.654;2023-11-19T14:31:02;15.6;66.6
79356;SHT31;68825;51.978;5.654;2023-11-19T14:33:31;15.6;66.5
79356;SHT31;68825;51.978;5.654;2023-11-19T14:36:02;15.6;66.2
79356;SHT31;68825;51.978;5.654;2023-11-19T14:38:32;15.5;66.6
79356;SHT31;68825;51.978;5.654;2023-11-19T14:41:01;15.5;66.8
79356;SHT31;68825;51.978;5.654;2023-11-19T14:43:31;15.4;66.8
79356;SHT31;68825;51.978;5.654;2023-11-19T14:46:00;15.4;67.1
79356;SHT31;68825;51.978;5.654;2023-11-19T14:48:30;15.3;67.4
79356;SHT31;68825;51.978;5.654;2023-11-19T14:50:58;15.3;67.5
79356;SHT31;68825;51.978;5.654;2023-11-19T14:53:29;15.3;67.5
79356;SHT31;68825;51.978;5.654;2023-11-19T14:55:57;15.2;67.9
79356;SHT31;68825;51.978;5.654;2023-11-19T14:58:26;15.2;67.8
79356;SHT31;68825;51.978;5.654;2023-11-19T15:00:55;15.2;67.8
79356;SHT31;68825;51.978;5.654;2023-11-19T15:03:23;15.2;68.1
79356;SHT31;68825;51.978;5.654;2023-11-19T15:05:54;15.2;68.1
79356;SHT31;68825;51.978;5.654;2023-11-19T15:08:22;15.1;68.2
79356;SHT31;68825;51.978;5.654;2023-11-19T15:10:51;15.1;68.1
79356;SHT31;68825;51.978;5.654;2023-11-19T15:13:20;15.1;68.3
79356;SHT31;68825;51.978;5.654;2023-11-19T15:15:48;15.1;68.3
79356;SHT31;68825;51.978;5.654;2023-11-19T15:18:19;15.1;68.5
79356;SHT31;68825;51.978;5.654;2023-11-19T15:20:47;15.1;68.5
79356;SHT31;68825;51.978;5.654;2023-11-19T15:23:16;15.1;68.4
79356;SHT31;68825;51.978;5.654;2023-11-19T15:25:46;15.1;68.4
79356;SHT31;68825;51.978;5.654;2023-11-19T15:28:15;15.1;68.6
79356;SHT31;68825;51.978;5.654;2023-11-19T15:30:45;15.1;68.5
79356;SHT31;68825;51.978;5.654;2023-11-19T15:33:14;15.2;68.5
79356;SHT31;68825;51.978;5.654;2023-11-19T15:35:45;15.2;68.1
79356;SHT31;68825;51.978;5.654;2023-11-19T15:38:14;15.2;68.2
79356;SHT31;68825;51.978;5.654;2023-11-19T15:40:42;15.2;68.7
79356;SHT31;68825;51.978;5.654;2023-11-19T15:43:12;15.1;68.9
79356;SHT31;68825;51.978;5.654;2023-11-19T15:45:40;15.1;68.4
79356;SHT31;68825;51.978;5.654;2023-11-19T15:48:09;15.1;68.4
79356;SHT31;68825;51.978;5.654;2023-11-19T15:50:40;15.1;68.5
79356;SHT31;68825;51.978;5.654;2023-11-19T15:53:10;15.1;68.6
79356;SHT31;68825;51.978;5.654;2023-11-19T15:55:39;15.1;68.9
79356;SHT31;68825;51.978;5.654;2023-11-19T15:58:08;15.1;69.3
79356;SHT31;68825;51.978;5.654;2023-11-19T16:00:36;15.1;69.5
79356;SHT31;68825;51.978;5.654;2023-11-19T16:03:07;15.1;69.6
79356;SHT31;68825;51.978;5.654;2023-11-19T16:05:35;15.1;69.7
79356;SHT31;68825;51.978;5.654;2023-11-19T16:08:04;15.0;69.8
79356;SHT31;68825;51.978;5.654;2023-11-19T16:10:34;15.0;70.1
79356;SHT31;68825;51.978;5.654;2023-11-19T16:13:06;15.0;69.7
79356;SHT31;68825;51.978;5.654;2023-11-19T16:15:35;15.0;69.8
79356;SHT31;68825;51.978;5.654;2023-11-19T16:18:04;15.0;69.6
79356;SHT31;68825;51.978;5.654;2023-11-19T16:20:35;15.0;69.4
79356;SHT31;68825;51.978;5.654;2023-11-19T16:23:06;15.0;69.6
79356;SHT31;68825;51.978;5.654;2023-11-19T16:25:34;15.0;69.7
79356;SHT31;68825;51.978;5.654;2023-11-19T16:28:04;15.0;69.7